Time;durP1;ratioP1;P1;durP2;ratioP2;P2;SDS_P1;SDS_P2;PMS_P1;PMS_P2;Temp;Humidity;BMP_temperature;BMP_pressure;BME280_temperature;BME280_humidity;BME280_pressure;Samples;Min_cycle;Max_cycle;Signal;HPM_P1;HPM_P2
2023/02/06 00:00:36;;;;;;;7.07;4.82;;;8.20;72.90;;;;;;2254525;55;21308;-78
2023/02/06 00:03:02;;;;;;;7.87;4.78;;;8.20;73.00;;;;;;2254158;55;20956;-78
2023/02/06 00:05:28;;;;;;;8.27;5.18;;;8.20;73.00;;;;;;2254281;55;21059;-78
2023/02/06 00:07:55;;;;;;;7.22;4.72;;;8.20;73.00;;;;;;2393226;54;21491;-79
2023/02/06 00:10:21;;;;;;;9.07;5.07;;;8.20;72.90;;;;;;2254852;55;21115;-77
2023/02/06 00:12:47;;;;;;;7.65;4.90;;;8.20;72.80;;;;;;2254704;55;20932;-78
2023/02/06 00:15:13;;;;;;;8.32;5.03;;;8.20;72.80;;;;;;2402774;55;21343;-78
2023/02/06 00:17:40;;;;;;;8.10;5.20;;;8.20;72.80;;;;;;2254170;55;20960;-79
2023/02/06 00:20:07;;;;;;;7.30;4.97;;;8.10;72.70;;;;;;2253859;55;21507;-76
2023/02/06 00:22:33;;;;;;;7.32;4.50;;;8.10;72.60;;;;;;2254239;55;21476;-77
2023/02/06 00:24:59;;;;;;;7.60;5.15;;;8.20;72.70;;;;;;2318199;55;20984;-77
2023/02/06 00:27:25;;;;;;;7.65;4.97;;;8.10;72.60;;;;;;2436088;54;21303;-78
2023/02/06 00:29:52;;;;;;;7.57;4.97;;;8.10;73.20;;;;;;2253397;55;21415;-75
2023/02/06 00:32:18;;;;;;;6.53;4.37;;;8.10;72.50;;;;;;2262634;54;21507;-76
2023/02/06 00:34:44;;;;;;;6.07;4.10;;;8.10;72.50;;;;;;2254289;55;21388;-76
2023/02/06 00:37:10;;;;;;;5.78;3.80;;;8.10;72.50;;;;;;2314156;54;21512;-78
2023/02/06 00:39:37;;;;;;;7.68;4.03;;;8.10;72.60;;;;;;2254894;55;21316;-77
2023/02/06 00:42:03;;;;;;;6.03;3.87;;;8.10;72.60;;;;;;2253788;55;21268;-78
2023/02/06 00:44:29;;;;;;;6.03;3.83;;;8.10;72.50;;;;;;2482576;55;21003;-77
2023/02/06 00:46:57;;;;;;;7.82;4.78;;;8.00;72.40;;;;;;2482545;54;20995;-77
2023/02/06 00:49:23;;;;;;;5.85;3.90;;;8.00;72.40;;;;;;2342202;55;20944;-78
2023/02/06 00:51:50;;;;;;;6.12;3.87;;;8.00;72.30;;;;;;2325932;54;20988;-76
2023/02/06 00:54:16;;;;;;;7.20;4.03;;;8.00;72.20;;;;;;2254824;55;21027;-77
2023/02/06 00:56:42;;;;;;;5.72;3.58;;;8.00;72.60;;;;;;2254051;55;20992;-76
2023/02/06 00:59:08;;;;;;;5.93;3.20;;;8.00;72.20;;;;;;2253901;55;20960;-78
2023/02/06 01:01:35;;;;;;;6.10;3.58;;;8.00;72.30;;;;;;2263335;55;21917;-78
2023/02/06 01:04:01;;;;;;;5.62;3.33;;;7.90;72.20;;;;;;2254026;55;21573;-79
2023/02/06 01:06:27;;;;;;;5.60;3.50;;;8.00;72.20;;;;;;2481531;54;21901;-77
2023/02/06 01:08:53;;;;;;;5.12;3.17;;;7.90;72.20;;;;;;2343423;54;20944;-78
2023/02/06 01:11:21;;;;;;;5.70;3.40;;;7.90;72.20;;;;;;2255441;55;21467;-76
2023/02/06 01:13:48;;;;;;;5.57;3.30;;;7.90;72.20;;;;;;2253003;55;21458;-78
2023/02/06 01:16:19;;;;;;;5.22;3.00;;;7.90;72.20;;;;;;2254309;55;21954;-78
2023/02/06 01:18:45;;;;;;;5.87;3.10;;;7.90;72.30;;;;;;2253989;55;21423;-77
2023/02/06 01:21:14;;;;;;;3.65;2.20;;;7.90;72.30;;;;;;2254182;55;21003;-78
2023/02/06 01:23:40;;;;;;;4.82;2.78;;;7.90;72.20;;;;;;2253775;55;20972;-76
2023/02/06 01:26:07;;;;;;;4.12;2.50;;;7.90;72.20;;;;;;2255086;55;20960;-77
2023/02/06 01:28:37;;;;;;;4.85;2.90;;;7.80;72.10;;;;;;2258014;55;20984;-77
2023/02/06 01:31:15;;;;;;;4.03;2.42;;;7.90;72.00;;;;;;2428234;54;20968;-76
2023/02/06 01:33:42;;;;;;;4.45;2.78;;;7.80;71.70;;;;;;2269401;55;21539;-77
2023/02/06 01:36:08;;;;;;;4.07;2.50;;;7.80;71.90;;;;;;2482726;55;20956;-79
2023/02/06 01:38:35;;;;;;;4.82;2.80;;;7.80;71.90;;;;;;2254261;55;21331;-78
2023/02/06 01:41:01;;;;;;;3.75;2.37;;;7.80;71.90;;;;;;2265139;55;20940;-76
2023/02/06 01:43:29;;;;;;;4.22;2.65;;;7.80;72.00;;;;;;2279664;55;21484;-76
2023/02/06 01:45:56;;;;;;;4.18;2.30;;;7.80;72.00;;;;;;2253929;55;20948;-76
2023/02/06 01:48:40;;;;;;;3.87;2.20;;;7.70;71.80;;;;;;2256486;54;20951;-78
2023/02/06 01:51:10;;;;;;;4.00;2.42;;;7.70;71.60;;;;;;2279418;55;21071;-76
2023/02/06 01:53:36;;;;;;;6.95;2.30;;;7.70;71.60;;;;;;2334051;55;21625;-76
2023/02/06 01:56:03;;;;;;;4.05;2.20;;;7.70;71.50;;;;;;2254280;55;20928;-78
2023/02/06 01:58:32;;;;;;;4.35;2.25;;;7.70;71.50;;;;;;2479866;55;20956;-76
2023/02/06 02:00:59;;;;;;;3.47;2.00;;;7.70;71.50;;;;;;2254882;55;21031;-78
2023/02/06 02:03:26;;;;;;;3.53;2.03;;;7.60;71.40;;;;;;2254861;55;21359;-78
2023/02/06 02:05:52;;;;;;;4.12;2.20;;;7.40;71.20;;;;;;2483526;55;21581;-76
2023/02/06 02:08:22;;;;;;;3.08;1.85;;;7.50;71.30;;;;;;2254693;55;21919;-76
2023/02/06 02:10:48;;;;;;;3.53;1.92;;;7.50;71.20;;;;;;2262408;55;21615;-76
2023/02/06 02:13:14;;;;;;;3.37;1.80;;;7.50;71.20;;;;;;2253629;55;21350;-77
2023/02/06 02:15:56;;;;;;;3.72;1.83;;;7.40;71.10;;;;;;2253169;55;21083;-76
2023/02/06 02:18:48;;;;;;;3.60;1.97;;;7.40;70.70;;;;;;2253705;55;21353;-75
2023/02/06 02:21:58;;;;;;;3.53;1.87;;;7.40;70.40;;;;;;2262724;55;21008;-76
2023/02/06 02:27:16;;;;;;;4.37;1.87;;;7.30;70.10;;;;;;2299861;55;21415;-76
2023/02/06 02:31:40;;;;;;;3.22;1.67;;;7.20;70.00;;;;;;2254204;55;21510;-77
2023/02/06 02:34:43;;;;;;;2.87;1.60;;;7.10;69.60;;;;;;2257076;55;21446;-76
2023/02/06 02:39:36;;;;;;;3.70;1.98;;;7.00;69.50;;;;;;2302762;55;21304;-75
2023/02/06 02:42:42;;;;;;;3.10;1.75;;;6.90;69.20;;;;;;2298049;55;21502;-76
2023/02/06 02:45:20;;;;;;;2.87;1.45;;;6.80;69.60;;;;;;2253616;55;20966;-75
2023/02/06 02:47:59;;;;;;;3.25;1.73;;;6.70;69.80;;;;;;2253911;55;21244;-76
2023/02/06 02:50:25;;;;;;;3.53;1.85;;;6.70;70.00;;;;;;2253677;55;21262;-76
2023/02/06 02:52:51;;;;;;;3.45;1.90;;;6.60;70.00;;;;;;2253752;55;21115;-76
2023/02/06 02:55:26;;;;;;;4.43;2.65;;;6.50;70.00;;;;;;2256858;55;21228;-76
2023/02/06 02:57:55;;;;;;;3.28;1.90;;;6.50;70.70;;;;;;2253900;55;21130;-78
2023/02/06 03:00:21;;;;;;;3.72;2.08;;;6.40;70.10;;;;;;2312142;55;20994;-77
2023/02/06 03:02:48;;;;;;;3.85;2.25;;;6.40;70.30;;;;;;2265788;54;20960;-79
2023/02/06 03:05:15;;;;;;;4.12;2.20;;;6.40;70.40;;;;;;2271472;55;20987;-76
2023/02/06 03:08:09;;;;;;;4.20;2.45;;;6.30;70.50;;;;;;2315288;54;22034;-76
2023/02/06 03:11:03;;;;;;;4.70;2.70;;;6.30;70.40;;;;;;2253684;55;20951;-76
2023/02/06 03:13:33;;;;;;;3.87;2.20;;;6.30;70.60;;;;;;2296759;55;21024;-76
2023/02/06 03:16:47;;;;;;;4.57;2.65;;;6.30;70.80;;;;;;2344291;55;21006;-77
2023/02/06 03:19:19;;;;;;;3.65;2.15;;;6.30;70.80;;;;;;2275034;54;21075;-76
2023/02/06 03:21:45;;;;;;;4.18;2.50;;;6.20;71.10;;;;;;2254385;55;20992;-77
2023/02/06 03:24:18;;;;;;;3.95;2.15;;;6.20;71.10;;;;;;2254634;55;20995;-76
2023/02/06 03:26:44;;;;;;;4.15;2.78;;;6.20;71.30;;;;;;2255393;55;21468;-76
2023/02/06 03:29:11;;;;;;;4.40;2.40;;;6.20;71.40;;;;;;2254739;55;21039;-76
2023/02/06 03:31:42;;;;;;;4.45;2.65;;;6.20;71.40;;;;;;2254253;55;21055;-76
2023/02/06 03:34:30;;;;;;;5.30;2.92;;;6.20;71.50;;;;;;2254485;55;21491;-76
2023/02/06 03:36:56;;;;;;;3.83;2.22;;;6.20;71.60;;;;;;2292989;55;21359;-77
2023/02/06 03:39:22;;;;;;;5.60;3.05;;;6.20;71.70;;;;;;2254084;55;21483;-75
2023/02/06 03:41:48;;;;;;;4.57;2.78;;;6.30;71.90;;;;;;2339865;55;20974;-76
2023/02/06 03:44:17;;;;;;;4.68;2.97;;;6.30;72.00;;;;;;2254266;55;21016;-76
2023/02/06 03:46:44;;;;;;;5.10;2.92;;;6.30;72.00;;;;;;2371595;55;20960;-78
2023/02/06 03:49:11;;;;;;;4.93;2.90;;;6.30;72.00;;;;;;2482934;54;21099;-77
2023/02/06 03:51:53;;;;;;;5.05;2.78;;;6.30;72.00;;;;;;2254579;55;20943;-77
2023/02/06 03:54:19;;;;;;;4.60;2.80;;;6.30;72.00;;;;;;2255274;55;21106;-78
2023/02/06 03:56:56;;;;;;;5.55;3.10;;;6.30;72.00;;;;;;2274493;55;20952;-78
2023/02/06 03:59:23;;;;;;;5.45;3.42;;;6.40;72.00;;;;;;2310377;55;22018;-78
2023/02/06 04:01:51;;;;;;;4.95;3.17;;;6.40;71.90;;;;;;2280986;55;21568;-76
2023/02/06 04:04:19;;;;;;;5.97;3.40;;;6.30;71.80;;;;;;2254625;55;20951;-76
2023/02/06 04:06:45;;;;;;;5.68;3.12;;;6.40;71.90;;;;;;2269929;55;21981;-76
2023/02/06 04:09:11;;;;;;;6.15;3.58;;;6.40;71.90;;;;;;2272664;55;20935;-78
2023/02/06 04:11:37;;;;;;;5.95;3.37;;;6.30;71.80;;;;;;2269382;54;20932;-77
2023/02/06 04:14:04;;;;;;;7.20;4.37;;;6.40;71.90;;;;;;2254924;55;21434;-78
2023/02/06 04:16:30;;;;;;;7.95;4.28;;;6.40;72.00;;;;;;2470523;54;20967;-77
2023/02/06 04:18:56;;;;;;;6.68;4.30;;;6.40;72.00;;;;;;2334661;54;21228;-75
2023/02/06 04:21:23;;;;;;;5.97;3.80;;;6.40;72.10;;;;;;2254299;55;21015;-76
2023/02/06 04:23:49;;;;;;;8.35;4.57;;;6.40;72.10;;;;;;2267743;55;20991;-76
2023/02/06 04:26:16;;;;;;;7.65;4.80;;;6.40;72.10;;;;;;2250516;55;21463;-78
2023/02/06 04:28:42;;;;;;;6.25;3.78;;;6.40;72.10;;;;;;2276466;55;21526;-78
2023/02/06 04:31:08;;;;;;;6.68;4.03;;;6.40;72.20;;;;;;2249820;55;21492;-78
2023/02/06 04:33:35;;;;;;;6.75;4.40;;;6.40;72.10;;;;;;2337910;54;20986;-76
2023/02/06 04:36:01;;;;;;;6.57;4.37;;;6.40;72.10;;;;;;2249810;55;20968;-79
2023/02/06 04:38:27;;;;;;;6.45;4.25;;;6.50;72.20;;;;;;2253614;55;20955;-78
2023/02/06 04:40:53;;;;;;;6.32;3.85;;;6.50;72.20;;;;;;2249464;55;20968;-75
2023/02/06 04:43:20;;;;;;;6.18;3.83;;;6.50;72.20;;;;;;2249723;55;21543;-77
2023/02/06 04:45:46;;;;;;;6.28;3.58;;;6.50;72.10;;;;;;2286106;55;21948;-75
2023/02/06 04:48:12;;;;;;;7.28;4.35;;;6.50;72.10;;;;;;2256496;54;21323;-76
2023/02/06 04:50:38;;;;;;;6.82;4.37;;;6.50;72.10;;;;;;2249346;55;21623;-76
2023/02/06 04:53:05;;;;;;;5.53;3.30;;;6.50;72.20;;;;;;2421390;55;21019;-76
2023/02/06 04:55:31;;;;;;;5.57;3.28;;;6.50;72.10;;;;;;2249442;55;21456;-78
2023/02/06 04:57:57;;;;;;;5.10;3.15;;;6.50;72.10;;;;;;2248935;55;21039;-76
2023/02/06 05:00:23;;;;;;;6.60;3.87;;;6.60;72.10;;;;;;2312070;54;20986;-76
2023/02/06 05:02:50;;;;;;;6.35;3.60;;;6.50;72.00;;;;;;2345778;54;21404;-76
2023/02/06 05:05:16;;;;;;;6.43;4.30;;;6.60;72.00;;;;;;2274180;55;21019;-79
2023/02/06 05:07:42;;;;;;;6.87;4.05;;;6.60;71.90;;;;;;2307208;55;21354;-78
2023/02/06 05:10:08;;;;;;;7.62;4.85;;;6.60;71.80;;;;;;2247674;55;20964;-76
2023/02/06 05:12:35;;;;;;;5.82;3.83;;;6.60;71.80;;;;;;2284144;54;21514;-77
2023/02/06 05:15:01;;;;;;;6.25;4.22;;;6.60;71.80;;;;;;2256054;54;21003;-78
2023/02/06 05:17:27;;;;;;;6.40;4.37;;;6.60;71.80;;;;;;2374875;54;21008;-77
2023/02/06 05:19:54;;;;;;;6.12;4.12;;;6.60;71.80;;;;;;2245758;55;21384;-77
2023/02/06 05:22:24;;;;;;;5.93;3.97;;;6.60;71.70;;;;;;2249387;55;21560;-77
2023/02/06 05:24:50;;;;;;;6.10;4.12;;;6.50;71.60;;;;;;2442351;54;20948;-76
2023/02/06 05:27:17;;;;;;;7.37;3.95;;;6.50;71.60;;;;;;2368338;55;21295;-79
2023/02/06 05:29:43;;;;;;;7.00;4.07;;;6.60;71.60;;;;;;2288249;54;21393;-76
2023/02/06 05:32:09;;;;;;;6.68;4.32;;;6.50;71.50;;;;;;2245705;55;21485;-78
2023/02/06 05:34:38;;;;;;;8.25;4.95;;;6.50;71.50;;;;;;2245505;55;21387;-78
2023/02/06 05:37:05;;;;;;;10.48;6.10;;;6.50;71.40;;;;;;2318147;55;21082;-76
2023/02/06 05:39:31;;;;;;;10.05;6.05;;;6.50;71.40;;;;;;2472504;54;21495;-78
2023/02/06 05:41:57;;;;;;;8.30;5.30;;;6.50;71.20;;;;;;2244824;55;21453;-76
2023/02/06 05:44:23;;;;;;;9.07;5.60;;;6.50;71.10;;;;;;2245470;55;21423;-78
2023/02/06 05:46:50;;;;;;;9.40;5.68;;;6.50;71.20;;;;;;2245549;55;21513;-77
2023/02/06 05:49:16;;;;;;;10.15;6.32;;;6.50;71.30;;;;;;2246902;55;21019;-78
2023/02/06 05:51:42;;;;;;;11.52;6.82;;;6.40;71.30;;;;;;2245554;55;21075;-78
2023/02/06 05:54:09;;;;;;;12.15;6.28;;;6.40;71.50;;;;;;2245748;55;22031;-76
2023/02/06 05:56:35;;;;;;;9.70;6.22;;;6.40;71.60;;;;;;2251349;55;21004;-77
2023/02/06 05:59:01;;;;;;;9.18;5.68;;;6.40;71.60;;;;;;2245131;55;21063;-78
2023/02/06 06:01:28;;;;;;;10.52;6.62;;;6.40;71.60;;;;;;2458465;54;20988;-78
2023/02/06 06:03:55;;;;;;;9.70;5.82;;;6.40;71.70;;;;;;2399941;54;20932;-77
2023/02/06 06:06:21;;;;;;;9.88;6.12;;;6.40;71.70;;;;;;2245500;55;21508;-78
2023/02/06 06:08:47;;;;;;;9.20;5.62;;;6.40;71.70;;;;;;2274077;55;20967;-78
2023/02/06 06:11:13;;;;;;;8.40;5.20;;;6.40;71.60;;;;;;2255731;55;21736;-77
2023/02/06 06:13:40;;;;;;;8.70;5.40;;;6.40;71.50;;;;;;2247237;55;21343;-76
2023/02/06 06:16:06;;;;;;;10.18;5.25;;;6.40;71.40;;;;;;2381923;55;21454;-76
2023/02/06 06:18:32;;;;;;;9.45;5.85;;;6.50;71.50;;;;;;2245495;55;21340;-78
2023/02/06 06:20:59;;;;;;;9.35;5.62;;;6.40;71.40;;;;;;2246043;55;21887;-77
2023/02/06 06:23:25;;;;;;;9.85;5.78;;;6.40;71.30;;;;;;2246409;55;21364;-78
2023/02/06 06:25:51;;;;;;;8.75;5.30;;;6.40;71.50;;;;;;2271819;55;20961;-77
2023/02/06 06:28:17;;;;;;;9.85;5.95;;;6.40;71.40;;;;;;2278195;55;21016;-77
2023/02/06 06:30:44;;;;;;;10.35;6.25;;;6.40;71.30;;;;;;2251373;54;21921;-76
2023/02/06 06:33:13;;;;;;;9.52;5.80;;;6.40;71.20;;;;;;2245868;55;20952;-76
2023/02/06 06:35:39;;;;;;;8.82;5.82;;;6.40;71.10;;;;;;2245358;55;21233;-78
2023/02/06 06:38:05;;;;;;;9.23;5.22;;;6.30;70.90;;;;;;2262765;55;21693;-76
2023/02/06 06:40:31;;;;;;;9.85;5.47;;;6.40;71.10;;;;;;2251703;54;21414;-75
2023/02/06 06:42:58;;;;;;;9.18;5.37;;;6.30;71.20;;;;;;2267696;55;20959;-79
2023/02/06 06:45:24;;;;;;;10.00;6.07;;;6.30;71.20;;;;;;2245772;55;21411;-75
2023/02/06 06:47:51;;;;;;;9.50;6.03;;;6.30;71.20;;;;;;2245693;55;21374;-76
2023/02/06 06:50:17;;;;;;;8.40;5.12;;;6.20;71.10;;;;;;2245641;55;21891;-76
2023/02/06 06:52:43;;;;;;;9.52;5.72;;;6.20;71.20;;;;;;2259210;55;21558;-76
2023/02/06 06:55:09;;;;;;;10.60;6.43;;;6.20;71.20;;;;;;2245959;55;20947;-78
2023/02/06 06:57:36;;;;;;;9.30;5.45;;;6.20;71.10;;;;;;2245870;55;21423;-77
2023/02/06 07:00:02;;;;;;;10.68;5.90;;;6.20;71.10;;;;;;2246396;55;21955;-76
2023/02/06 07:02:29;;;;;;;10.90;6.50;;;6.20;71.10;;;;;;2248405;55;20934;-76
2023/02/06 07:04:55;;;;;;;10.25;6.07;;;6.20;71.20;;;;;;2437127;55;20984;-75
2023/02/06 07:07:21;;;;;;;9.57;5.62;;;6.20;71.30;;;;;;2245543;55;21078;-75
2023/02/06 07:09:48;;;;;;;10.00;5.62;;;6.20;71.40;;;;;;2245702;55;21534;-78
2023/02/06 07:12:14;;;;;;;9.18;5.18;;;6.20;71.50;;;;;;2245450;55;20964;-78
2023/02/06 07:14:40;;;;;;;10.93;5.97;;;6.20;71.50;;;;;;2389286;54;20935;-77
2023/02/06 07:17:07;;;;;;;9.82;5.40;;;6.20;71.50;;;;;;2245343;55;21643;-78
2023/02/06 07:19:33;;;;;;;9.95;5.82;;;6.20;71.40;;;;;;2317617;55;20947;-75
2023/02/06 07:21:59;;;;;;;10.45;5.40;;;6.20;71.40;;;;;;2244982;55;21414;-78
2023/02/06 07:24:26;;;;;;;11.18;6.30;;;6.20;71.40;;;;;;2245154;55;21929;-77
2023/02/06 07:26:52;;;;;;;11.98;6.78;;;6.20;71.40;;;;;;2251461;54;21369;-78
2023/02/06 07:29:18;;;;;;;9.32;5.87;;;6.20;71.40;;;;;;2302381;54;21794;-76
2023/02/06 07:31:45;;;;;;;8.75;5.47;;;6.20;71.40;;;;;;2244799;55;21511;-77
2023/02/06 07:34:11;;;;;;;10.10;5.93;;;6.20;71.20;;;;;;2245384;55;21603;-76
2023/02/06 07:36:37;;;;;;;11.65;6.50;;;6.10;71.00;;;;;;2302848;55;21391;-75
2023/02/06 07:39:04;;;;;;;10.98;6.55;;;6.10;71.00;;;;;;2260781;55;20959;-77
2023/02/06 07:41:30;;;;;;;12.98;6.62;;;6.20;71.00;;;;;;2413478;54;20978;-78
2023/02/06 07:43:56;;;;;;;10.88;6.05;;;6.10;71.00;;;;;;2245281;55;21607;-76
2023/02/06 07:46:22;;;;;;;12.77;6.72;;;6.10;71.00;;;;;;2257243;55;21539;-78
2023/02/06 07:48:49;;;;;;;10.93;5.87;;;6.10;71.00;;;;;;2252140;55;21588;-76
2023/02/06 07:51:15;;;;;;;10.77;6.00;;;6.10;70.90;;;;;;2245930;55;21404;-77
2023/02/06 07:53:41;;;;;;;10.85;6.28;;;6.10;70.70;;;;;;2250999;55;21471;-77
2023/02/06 07:56:15;;;;;;;11.98;6.32;;;6.00;70.60;;;;;;2246310;55;21539;-77
2023/02/06 07:58:42;;;;;;;11.12;5.70;;;6.00;70.50;;;;;;2251085;55;20960;-76
2023/02/06 08:01:08;;;;;;;9.70;5.55;;;6.00;70.70;;;;;;2446227;55;21508;-78
2023/02/06 08:03:34;;;;;;;9.40;5.45;;;6.00;70.80;;;;;;2244977;55;21249;-75
2023/02/06 08:06:09;;;;;;;9.10;5.30;;;5.90;70.80;;;;;;2374413;55;21574;-76
2023/02/06 08:08:35;;;;;;;10.55;5.62;;;6.00;71.60;;;;;;2356809;55;21463;-79
2023/02/06 08:11:11;;;;;;;12.20;6.45;;;5.90;70.80;;;;;;2245306;55;21370;-78
2023/02/06 08:13:37;;;;;;;9.75;5.78;;;5.90;70.80;;;;;;2244894;55;21665;-78
2023/02/06 08:16:04;;;;;;;13.38;6.15;;;5.90;70.90;;;;;;2323477;54;21218;-79
2023/02/06 08:18:31;;;;;;;12.30;6.28;;;5.90;71.00;;;;;;2317593;55;22005;-77
2023/02/06 08:21:01;;;;;;;11.35;6.37;;;5.90;71.10;;;;;;2244950;55;20939;-75
2023/02/06 08:23:27;;;;;;;13.45;7.60;;;5.90;71.20;;;;;;2245300;55;21268;-78
2023/02/06 08:26:18;;;;;;;11.20;6.30;;;5.80;71.30;;;;;;2241614;55;22052;-76
2023/02/06 08:28:46;;;;;;;9.32;5.03;;;5.90;72.20;;;;;;2350598;55;21400;-76
2023/02/06 08:31:35;;;;;;;10.73;5.75;;;5.90;71.70;;;;;;2259728;55;21015;-78
2023/02/06 08:34:01;;;;;;;10.43;5.82;;;5.90;71.80;;;;;;2323047;55;20952;-78
2023/02/06 08:36:30;;;;;;;12.75;7.12;;;5.90;71.90;;;;;;2262620;55;21518;-75
2023/02/06 08:38:56;;;;;;;10.38;6.37;;;5.90;71.90;;;;;;2263285;55;20960;-76
2023/02/06 08:41:27;;;;;;;8.98;5.15;;;5.90;71.90;;;;;;2258671;55;20935;-78
2023/02/06 08:43:55;;;;;;;12.30;6.15;;;6.00;72.00;;;;;;2256076;55;21520;-78
2023/02/06 08:46:23;;;;;;;12.32;6.62;;;6.00;72.10;;;;;;2255218;55;21020;-77
2023/02/06 08:48:57;;;;;;;13.23;6.62;;;6.00;72.10;;;;;;2383433;54;20964;-75
2023/02/06 08:51:26;;;;;;;10.63;5.20;;;6.00;71.90;;;;;;2255541;55;20981;-75
2023/02/06 08:53:58;;;;;;;10.98;5.53;;;6.00;71.70;;;;;;2354001;55;20967;-77
2023/02/06 08:56:25;;;;;;;10.55;5.53;;;6.00;71.70;;;;;;2373390;55;21489;-76
2023/02/06 08:58:52;;;;;;;10.23;5.20;;;6.00;71.80;;;;;;2255633;55;21589;-76
2023/02/06 09:01:18;;;;;;;11.27;5.60;;;6.10;72.00;;;;;;2256173;55;21012;-79
2023/02/06 09:03:45;;;;;;;10.27;5.45;;;6.10;72.10;;;;;;2255647;55;20963;-76
2023/02/06 09:06:11;;;;;;;9.90;5.22;;;6.10;72.00;;;;;;2255413;55;21523;-77
2023/02/06 09:08:38;;;;;;;10.10;5.28;;;6.10;72.10;;;;;;2309148;54;20995;-77
2023/02/06 09:11:05;;;;;;;13.07;6.60;;;6.10;72.10;;;;;;2268244;55;21777;-77
2023/02/06 09:13:32;;;;;;;14.13;7.45;;;6.20;72.10;;;;;;2322433;55;21609;-79
2023/02/06 09:15:58;;;;;;;13.65;7.30;;;6.20;71.90;;;;;;2255463;55;21377;-76
2023/02/06 09:18:24;;;;;;;12.32;6.90;;;6.20;71.80;;;;;;2255208;55;21003;-76
2023/02/06 09:20:52;;;;;;;12.75;7.00;;;6.20;71.80;;;;;;2255488;55;21324;-79
2023/02/06 09:23:18;;;;;;;13.75;7.30;;;6.20;71.90;;;;;;2318064;54;21786;-76
2023/02/06 09:25:44;;;;;;;12.18;7.05;;;6.20;71.80;;;;;;2261278;55;21373;-79
2023/02/06 09:28:11;;;;;;;12.80;6.47;;;6.20;71.70;;;;;;2255775;55;21949;-78
2023/02/06 09:30:38;;;;;;;12.37;6.32;;;6.20;71.70;;;;;;2255103;55;20971;-76
2023/02/06 09:33:04;;;;;;;13.80;6.97;;;6.20;71.70;;;;;;2412748;55;21281;-77
2023/02/06 09:35:30;;;;;;;12.00;6.68;;;6.20;71.60;;;;;;2255332;55;21089;-77
2023/02/06 09:37:57;;;;;;;12.27;6.50;;;6.20;71.50;;;;;;2255552;55;21924;-77
2023/02/06 09:40:25;;;;;;;11.15;6.05;;;6.20;71.70;;;;;;2282825;55;20992;-76
2023/02/06 09:42:52;;;;;;;10.13;5.65;;;6.20;71.80;;;;;;2291184;55;21530;-76
2023/02/06 09:45:20;;;;;;;9.60;5.07;;;6.30;71.90;;;;;;2309184;55;20967;-76
2023/02/06 09:47:52;;;;;;;10.95;5.72;;;6.30;72.00;;;;;;2244285;56;20983;-75
2023/02/06 09:50:54;;;;;;;12.07;5.87;;;6.30;72.20;;;;;;2283667;55;21611;-77
2023/02/06 09:54:05;;;;;;;11.07;5.90;;;6.30;71.90;;;;;;2305621;55;20984;-78
2023/02/06 09:56:46;;;;;;;12.20;6.53;;;6.40;72.10;;;;;;2288105;55;20963;-77
2023/02/06 09:59:24;;;;;;;10.85;5.53;;;6.40;72.40;;;;;;2263875;55;21443;-75
2023/02/06 10:06:49;;;;;;;10.48;5.62;;;6.40;72.70;;;;;;2267794;54;21751;-76
2023/02/06 10:09:20;;;;;;;10.98;5.43;;;6.50;72.40;;;;;;2264216;55;20959;-78
2023/02/06 10:11:58;;;;;;;10.80;5.95;;;6.60;73.90;;;;;;2267900;55;21040;-76
2023/02/06 10:14:59;;;;;;;10.85;5.93;;;6.70;73.60;;;;;;2300812;55;21007;-79
2023/02/06 10:17:30;;;;;;;9.05;4.95;;;6.70;73.80;;;;;;2263651;55;21404;-79
2023/02/06 10:20:00;;;;;;;8.25;4.78;;;6.80;74.00;;;;;;2492862;54;20992;-77
2023/02/06 10:22:48;;;;;;;12.45;6.25;;;6.80;74.10;;;;;;2263766;55;20988;-77
2023/02/06 10:25:22;;;;;;;9.80;5.90;;;6.90;74.20;;;;;;2364965;55;20999;-77
2023/02/06 10:27:53;;;;;;;12.63;6.45;;;6.90;74.00;;;;;;2264000;55;20927;-79
2023/02/06 10:30:27;;;;;;;12.85;7.25;;;6.90;74.40;;;;;;2283965;55;20948;-77
2023/02/06 10:33:04;;;;;;;11.35;7.03;;;7.10;75.30;;;;;;2363399;55;20964;-78
2023/02/06 10:35:47;;;;;;;10.52;6.03;;;7.20;76.00;;;;;;2287751;55;21449;-76
2023/02/06 10:39:57;;;;;;;10.40;6.65;;;7.40;76.70;;;;;;2302469;55;21465;-79
2023/02/06 10:42:42;;;;;;;10.73;6.37;;;7.60;76.90;;;;;;2264265;55;20952;-78
2023/02/06 10:45:31;;;;;;;12.05;7.03;;;7.70;77.00;;;;;;2264205;55;20980;-78
2023/02/06 10:48:01;;;;;;;11.70;6.82;;;7.90;76.90;;;;;;2298262;54;21374;-79
2023/02/06 10:50:52;;;;;;;12.43;7.22;;;8.00;76.70;;;;;;2310100;54;20924;-77
2023/02/06 10:53:35;;;;;;;11.38;7.40;;;8.10;76.60;;;;;;2407992;54;21461;-76
2023/02/06 10:56:09;;;;;;;12.27;7.32;;;8.20;76.10;;;;;;2338929;55;21460;-77
2023/02/06 10:58:41;;;;;;;14.48;8.13;;;8.30;76.10;;;;;;2264191;55;20996;-77
2023/02/06 11:01:09;;;;;;;10.20;6.50;;;8.40;75.90;;;;;;2342054;55;21507;-79
2023/02/06 11:04:03;;;;;;;;;;;8.50;75.60;;;;;;2277669;54;20987;-78
2023/02/06 11:06:29;;;;;;;9.68;5.72;;;8.60;74.70;;;;;;2286924;55;20066;-79
2023/02/06 11:08:56;;;;;;;11.52;6.15;;;8.60;75.40;;;;;;2263545;55;20983;-78
2023/02/06 11:11:30;;;;;;;12.05;7.07;;;8.70;75.00;;;;;;2354996;55;20924;-79
2023/02/06 11:14:10;;;;;;;12.07;7.57;;;8.70;74.90;;;;;;2300814;55;20932;-80
2023/02/06 11:16:37;;;;;;;11.32;7.05;;;8.80;74.90;;;;;;2493165;54;21281;-79
2023/02/06 11:19:24;;;;;;;11.70;6.62;;;8.80;74.70;;;;;;2263965;55;21871;-77
2023/02/06 11:28:55;;;;;;;10.00;5.90;;;8.90;74.40;;;;;;2263991;55;21019;-78
2023/02/06 11:31:40;;;;;;;9.30;4.82;;;9.00;73.30;;;;;;2264216;55;21284;-79
2023/02/06 11:34:20;;;;;;;9.45;5.50;;;9.00;72.90;;;;;;2263747;55;21765;-77
2023/02/06 11:36:50;;;;;;;10.48;5.72;;;9.00;72.90;;;;;;2266888;55;21648;-80
2023/02/06 11:39:36;;;;;;;9.65;5.53;;;9.00;73.00;;;;;;2322858;54;20995;-77
2023/02/06 11:42:17;;;;;;;8.93;5.35;;;9.00;72.30;;;;;;2292163;55;21016;-77
2023/02/06 11:44:45;;;;;;;9.45;5.45;;;9.00;73.50;;;;;;2263335;55;21043;-78
2023/02/06 11:47:33;;;;;;;10.77;6.30;;;9.00;72.90;;;;;;2443879;54;20928;-78
2023/02/06 11:50:24;;;;;;;10.05;6.07;;;9.00;72.70;;;;;;2263840;55;21526;-78
2023/02/06 11:52:54;;;;;;;8.95;5.25;;;9.00;72.60;;;;;;2266354;55;20936;-80
2023/02/06 11:55:22;;;;;;;7.87;5.15;;;9.00;73.10;;;;;;2368289;55;21469;-77
2023/02/06 11:58:17;;;;;;;8.05;4.28;;;9.10;73.10;;;;;;2315895;54;21401;-76
2023/02/06 12:01:01;;;;;;;9.52;5.10;;;9.10;72.60;;;;;;2263330;55;20948;-77
2023/02/06 12:03:43;;;;;;;8.40;4.90;;;9.10;72.40;;;;;;2267513;55;20980;-76
2023/02/06 12:06:57;;;;;;;6.73;4.20;;;9.10;72.20;;;;;;2266202;55;21043;-79
2023/02/06 12:09:24;;;;;;;7.12;4.47;;;9.10;71.50;;;;;;2309448;55;21686;-80
2023/02/06 12:12:38;;;;;;;7.03;4.10;;;9.10;72.40;;;;;;2264700;55;20928;-79
2023/02/06 12:15:13;;;;;;;5.85;3.22;;;9.10;71.30;;;;;;2339388;55;20959;-77
2023/02/06 12:18:10;;;;;;;6.40;3.58;;;9.10;72.10;;;;;;2271813;54;21040;-80
2023/02/06 12:20:58;;;;;;;7.57;3.78;;;9.10;72.10;;;;;;2263774;55;21019;-77
2023/02/06 12:23:38;;;;;;;6.65;3.70;;;9.10;71.70;;;;;;2264581;55;20996;-77
2023/02/06 12:26:12;;;;;;;5.93;3.17;;;9.10;71.90;;;;;;2294795;55;21008;-79
2023/02/06 12:29:01;;;;;;;7.05;3.72;;;9.10;71.90;;;;;;2266959;55;21540;-78
2023/02/06 12:32:07;;;;;;;7.28;3.85;;;9.10;71.50;;;;;;2332264;54;20984;-79
2023/02/06 12:34:54;;;;;;;7.55;3.97;;;9.10;70.70;;;;;;2264105;55;20940;-77
2023/02/06 12:38:21;;;;;;;8.32;4.40;;;9.10;70.70;;;;;;2265344;55;21044;-76
2023/02/06 12:41:33;;;;;;;6.22;3.28;;;9.00;70.40;;;;;;2368110;55;21539;-77
2023/02/06 12:44:08;;;;;;;8.25;4.22;;;9.00;70.40;;;;;;2264172;55;20987;-80
2023/02/06 12:46:34;;;;;;;6.65;3.78;;;9.00;71.10;;;;;;2264711;55;20916;-80
2023/02/06 12:49:11;;;;;;;8.05;4.18;;;8.90;71.20;;;;;;2264446;55;21398;-78
2023/02/06 12:51:45;;;;;;;6.07;3.62;;;8.90;71.20;;;;;;2263849;55;21044;-78
2023/02/06 12:54:21;;;;;;;5.78;3.28;;;8.90;71.50;;;;;;2418616;55;20952;-79
2023/02/06 12:57:05;;;;;;;5.45;2.92;;;8.90;71.60;;;;;;2263585;55;21083;-77
2023/02/06 13:01:14;;;;;;;5.00;2.90;;;8.90;71.70;;;;;;2264741;55;20920;-79
2023/02/06 13:03:55;;;;;;;4.80;2.30;;;9.00;70.60;;;;;;2263919;55;21266;-79
2023/02/06 13:06:28;;;;;;;5.35;2.25;;;9.00;71.70;;;;;;2263806;55;20931;-79
2023/02/06 13:08:59;;;;;;;6.07;2.72;;;8.90;71.30;;;;;;2314257;55;20936;-78
2023/02/06 13:11:39;;;;;;;6.93;2.80;;;8.90;71.40;;;;;;2264122;55;21072;-79
2023/02/06 13:15:59;;;;;;;5.93;2.85;;;8.90;71.00;;;;;;2264285;55;20955;-76
2023/02/06 13:23:48;;;;;;;6.65;3.42;;;8.90;70.20;;;;;;2264029;55;21004;-79
2023/02/06 13:26:15;;;;;;;5.97;3.53;;;8.90;69.80;;;;;;2263626;55;20980;-77
2023/02/06 13:28:44;;;;;;;7.37;4.07;;;8.80;70.50;;;;;;2268928;54;21010;-78
2023/02/06 13:31:24;;;;;;;7.00;4.00;;;8.80;70.20;;;;;;2273649;55;20924;-78
2023/02/06 13:33:58;;;;;;;9.07;4.75;;;8.70;69.70;;;;;;2273149;55;21480;-77
2023/02/06 13:36:48;;;;;;;7.37;4.68;;;8.70;70.00;;;;;;2361159;55;20976;-79
2023/02/06 13:39:21;;;;;;;6.50;4.10;;;8.70;69.60;;;;;;2289051;55;20952;-79
2023/02/06 13:41:48;;;;;;;6.68;4.03;;;8.60;69.80;;;;;;2285399;55;20976;-79
2023/02/06 13:44:20;;;;;;;7.15;4.15;;;8.50;70.00;;;;;;2269840;55;21314;-77
2023/02/06 13:49:56;;;;;;;;;;;8.50;70.00;;;;;;2266270;55;21055;-78